Time;durP1;ratioP1;P1;durP2;ratioP2;P2;SDS_P1;SDS_P2;PMS_P1;PMS_P2;Temp;Humidity;BMP_temperature;BMP_pressure;BME280_temperature;BME280_humidity;BME280_pressure;Samples;Min_cycle;Max_cycle;Signal;HPM_P1;HPM_P2
2022/11/18 00:00:01;;;;;;;;;;;;;;;;;;5091923;28;19909;-68
2022/11/18 00:02:27;;;;;;;;;;;;;;;;;;5093619;28;20281;-68
2022/11/18 00:04:53;;;;;;;;;;;;;;;;;;5093531;28;19920;-68
2022/11/18 00:07:19;;;;;;;;;;;;;;;;;;5091889;28;19916;-67
2022/11/18 00:09:45;;;;;;;;;;;;;;;;;;5093619;28;19915;-67
2022/11/18 00:14:56;;;;;;;;;;;;;;;;;;5097489;28;19915;-67
2022/11/18 00:17:22;;;;;;;;;;;;;;;;;;5097268;28;20321;-68
2022/11/18 00:19:48;;;;;;;;;;;;;;;;;;5096822;28;19930;-67
2022/11/18 00:22:14;;;;;;;;;;;;;;;;;;5097174;28;19956;-68
2022/11/18 00:24:40;;;;;;;;;;;;;;;;;;5096920;28;19977;-67
2022/11/18 00:27:06;;;;;;;;;;;;;;;;;;5095372;28;20360;-67
2022/11/18 00:29:32;;;;;;;;;;;;;;;;;;5097034;28;20409;-67
2022/11/18 00:31:58;;;;;;;;;;;;;;;;;;5095667;28;20288;-68
2022/11/18 00:34:24;;;;;;;;;;;;;;;;;;5096445;28;19915;-67
2022/11/18 00:36:50;;;;;;;;;;;;;;;;;;5095618;28;19930;-68
2022/11/18 00:39:16;;;;;;;;;;;;;;;;;;5097103;28;19961;-67
2022/11/18 00:44:26;;;;;;;;;;;;;;;;;;5096759;28;19966;-67
2022/11/18 00:46:52;;;;;;;;;;;;;;;;;;5096646;28;19951;-67
2022/11/18 00:49:18;;;;;;;;;;;;;;;;;;5096225;28;20292;-67
2022/11/18 00:51:44;;;;;;;;;;;;;;;;;;5095287;28;19977;-67
2022/11/18 00:54:11;;;;;;;;;;;;;;;;;;5096520;28;19908;-67
2022/11/18 00:56:37;;;;;;;;;;;;;;;;;;5096089;28;19908;-67
2022/11/18 00:59:03;;;;;;;;;;;;;;;;;;5096533;28;19915;-68
2022/11/18 01:01:29;;;;;;;;;;;;;;;;;;5095996;28;19912;-68
2022/11/18 01:03:55;;;;;;;;;;;;;;;;;;5095090;28;20355;-68
2022/11/18 01:06:21;;;;;;;;;;;;;;;;;;5094892;28;19923;-67
2022/11/18 01:08:47;;;;;;;;;;;;;;;;;;5095869;28;19922;-67
2022/11/18 01:13:57;;;;;;;;;;;;;;;;;;5096265;28;20016;-67
2022/11/18 01:16:23;;;;;;;;;;;;;;;;;;5095700;28;20372;-67
2022/11/18 01:18:49;;;;;;;;;;;;;;;;;;5096077;28;19912;-67
2022/11/18 01:21:15;;;;;;;;;;;;;;;;;;5096371;28;20360;-67
2022/11/18 01:23:41;;;;;;;;;;;;;;;;;;5095713;28;20283;-67
2022/11/18 01:26:07;;;;;;;;;;;;;;;;;;5095758;28;20290;-67
2022/11/18 01:28:33;;;;;;;;;;;;;;;;;;5094645;28;19969;-68
2022/11/18 01:30:59;;;;;;;;;;;;;;;;;;5095360;28;19912;-68
2022/11/18 01:33:24;;;;;;;;;;;;;;;;;;5095798;28;19908;-68
2022/11/18 01:35:50;;;;;;;;;;;;;;;;;;5095761;28;19916;-67
2022/11/18 01:38:16;;;;;;;;;;;;;;;;;;5095382;28;19908;-67
2022/11/18 01:40:42;;;;;;;;;;;;;;;;;;5095687;28;20275;-67
2022/11/18 01:43:08;;;;;;;;;;;;;;;;;;5095595;28;19912;-67
2022/11/18 01:45:34;;;;;;;;;;;;;;;;;;5095015;28;19955;-68
2022/11/18 01:48:00;;;;;;;;;;;;;;;;;;5095643;28;19909;-67
2022/11/18 01:50:26;;;;;;;;;;;;;;;;;;5095433;28;19908;-67
2022/11/18 01:52:52;;;;;;;;;;;;;;;;;;5093739;28;20015;-67
2022/11/18 01:55:18;;;;;;;;;;;;;;;;;;5095311;28;19908;-67
2022/11/18 01:57:44;;;;;;;;;;;;;;;;;;5094897;28;20379;-67
2022/11/18 02:00:10;;;;;;;;;;;;;;;;;;5095632;28;20245;-67
2022/11/18 02:02:36;;;;;;;;;;;;;;;;;;5095255;28;20276;-68
2022/11/18 02:05:02;;;;;;;;;;;;;;;;;;5094723;28;19912;-68
2022/11/18 02:07:28;;;;;;;;;;;;;;;;;;5095125;28;19912;-69
2022/11/18 02:09:54;;;;;;;;;;;;;;;;;;5095081;28;20374;-67
2022/11/18 02:12:20;;;;;;;;;;;;;;;;;;5094671;28;19961;-68
2022/11/18 02:14:46;;;;;;;;;;;;;;;;;;5095199;28;19908;-67
2022/11/18 02:17:12;;;;;;;;;;;;;;;;;;5095289;28;19908;-67
2022/11/18 02:19:38;;;;;;;;;;;;;;;;;;5093253;28;19908;-68
2022/11/18 02:22:03;;;;;;;;;;;;;;;;;;5094965;28;20015;-67
2022/11/18 02:24:29;;;;;;;;;;;;;;;;;;5095086;28;19915;-67
2022/11/18 02:26:55;;;;;;;;;;;;;;;;;;5092810;28;20380;-67
2022/11/18 02:29:21;;;;;;;;;;;;;;;;;;5095245;28;20361;-67
2022/11/18 02:31:47;;;;;;;;;;;;;;;;;;5094644;28;19908;-68
2022/11/18 02:34:13;;;;;;;;;;;;;;;;;;5094076;28;19905;-67
2022/11/18 02:36:39;;;;;;;;;;;;;;;;;;5094533;28;20462;-67
2022/11/18 02:39:05;;;;;;;;;;;;;;;;;;5094986;28;20356;-67
2022/11/18 02:41:31;;;;;;;;;;;;;;;;;;5094135;28;20313;-67
2022/11/18 02:43:57;;;;;;;;;;;;;;;;;;5094531;28;19904;-67
2022/11/18 02:46:23;;;;;;;;;;;;;;;;;;5094237;28;19916;-67
2022/11/18 02:48:49;;;;;;;;;;;;;;;;;;5092690;28;19931;-67
2022/11/18 02:51:16;;;;;;;;;;;;;;;;;;5094411;28;19915;-68
2022/11/18 02:53:42;;;;;;;;;;;;;;;;;;5094304;28;19909;-67
2022/11/18 02:56:08;;;;;;;;;;;;;;;;;;5093946;28;20435;-67
2022/11/18 02:58:34;;;;;;;;;;;;;;;;;;5094222;28;19908;-67
2022/11/18 03:01:00;;;;;;;;;;;;;;;;;;5093807;28;20041;-67
2022/11/18 03:03:26;;;;;;;;;;;;;;;;;;5094214;28;19908;-67
2022/11/18 03:05:52;;;;;;;;;;;;;;;;;;5094078;28;19922;-67
2022/11/18 03:08:18;;;;;;;;;;;;;;;;;;5093737;28;19908;-67
2022/11/18 03:10:44;;;;;;;;;;;;;;;;;;5094107;28;19908;-67
2022/11/18 03:13:10;;;;;;;;;;;;;;;;;;5094026;28;19908;-67
2022/11/18 03:15:36;;;;;;;;;;;;;;;;;;5093639;28;20011;-67
2022/11/18 03:18:02;;;;;;;;;;;;;;;;;;5093986;28;19915;-67
2022/11/18 03:20:28;;;;;;;;;;;;;;;;;;5094059;28;19915;-67
2022/11/18 03:22:54;;;;;;;;;;;;;;;;;;5092285;28;19909;-67
2022/11/18 03:25:20;;;;;;;;;;;;;;;;;;5093741;28;19927;-67
2022/11/18 03:27:46;;;;;;;;;;;;;;;;;;5093895;28;19995;-67
2022/11/18 03:30:11;;;;;;;;;;;;;;;;;;5093583;28;19958;-67
2022/11/18 03:32:37;;;;;;;;;;;;;;;;;;5092544;28;19908;-67
2022/11/18 03:35:04;;;;;;;;;;;;;;;;;;5094462;28;19915;-68
2022/11/18 03:37:30;;;;;;;;;;;;;;;;;;5093425;28;20372;-67
2022/11/18 03:39:56;;;;;;;;;;;;;;;;;;5093877;28;19961;-67
2022/11/18 03:42:22;;;;;;;;;;;;;;;;;;5092514;28;19948;-67
2022/11/18 03:44:48;;;;;;;;;;;;;;;;;;5091999;28;19944;-67
2022/11/18 03:47:13;;;;;;;;;;;;;;;;;;5094106;28;19908;-67
2022/11/18 03:49:40;;;;;;;;;;;;;;;;;;5097844;28;19908;-67
2022/11/18 03:52:05;;;;;;;;;;;;;;;;;;5097508;28;19908;-67
2022/11/18 03:54:31;;;;;;;;;;;;;;;;;;5097753;28;19930;-67
2022/11/18 03:56:57;;;;;;;;;;;;;;;;;;5096410;28;19908;-67
2022/11/18 03:59:23;;;;;;;;;;;;;;;;;;5097271;28;19915;-67
2022/11/18 04:01:49;;;;;;;;;;;;;;;;;;5097588;28;19965;-67
2022/11/18 04:04:15;;;;;;;;;;;;;;;;;;5096258;28;19908;-67
2022/11/18 04:06:41;;;;;;;;;;;;;;;;;;5097659;28;20066;-67
2022/11/18 04:09:07;;;;;;;;;;;;;;;;;;5097814;28;20422;-68
2022/11/18 04:14:19;;;;;;;;;;;;;;;;;;5097437;28;19915;-67
2022/11/18 04:16:45;;;;;;;;;;;;;;;;;;5097338;28;19909;-68
2022/11/18 04:19:11;;;;;;;;;;;;;;;;;;5095905;28;19931;-67
2022/11/18 04:21:37;;;;;;;;;;;;;;;;;;5097298;28;19908;-67
2022/11/18 04:24:03;;;;;;;;;;;;;;;;;;5097232;28;19912;-67
2022/11/18 04:26:30;;;;;;;;;;;;;;;;;;5096625;28;19964;-67
2022/11/18 04:28:56;;;;;;;;;;;;;;;;;;5097069;28;19908;-67
2022/11/18 04:31:22;;;;;;;;;;;;;;;;;;5097006;28;19915;-67
2022/11/18 04:33:48;;;;;;;;;;;;;;;;;;5096641;28;19908;-67
2022/11/18 04:36:14;;;;;;;;;;;;;;;;;;5095730;28;19942;-67
2022/11/18 04:38:39;;;;;;;;;;;;;;;;;;5096954;28;19908;-67
2022/11/18 04:41:05;;;;;;;;;;;;;;;;;;5096434;28;19908;-67
2022/11/18 04:43:31;;;;;;;;;;;;;;;;;;5096848;28;19908;-67
2022/11/18 04:45:57;;;;;;;;;;;;;;;;;;5096781;28;19920;-67
2022/11/18 04:48:23;;;;;;;;;;;;;;;;;;5096372;28;19915;-67
2022/11/18 04:50:49;;;;;;;;;;;;;;;;;;5097276;28;19934;-67
2022/11/18 04:53:15;;;;;;;;;;;;;;;;;;5097251;28;20288;-67
2022/11/18 04:55:41;;;;;;;;;;;;;;;;;;5096258;28;20477;-67
2022/11/18 04:58:07;;;;;;;;;;;;;;;;;;5094812;28;20279;-67
2022/11/18 05:00:33;;;;;;;;;;;;;;;;;;5096359;28;19951;-67
2022/11/18 05:02:59;;;;;;;;;;;;;;;;;;5095166;28;19912;-67
2022/11/18 05:05:25;;;;;;;;;;;;;;;;;;5095328;28;19964;-67
2022/11/18 05:07:51;;;;;;;;;;;;;;;;;;5094399;28;19908;-67
2022/11/18 05:10:17;;;;;;;;;;;;;;;;;;5095914;28;19908;-67
2022/11/18 05:12:49;;;;;;;;;;;;;;;;;;5094981;28;19916;-67
2022/11/18 05:15:15;;;;;;;;;;;;;;;;;;5096081;28;20360;-67
2022/11/18 05:17:41;;;;;;;;;;;;;;;;;;5094913;28;19908;-67
2022/11/18 05:20:07;;;;;;;;;;;;;;;;;;5096069;28;19915;-67
2022/11/18 05:22:33;;;;;;;;;;;;;;;;;;5092678;28;19987;-68
2022/11/18 05:24:59;;;;;;;;;;;;;;;;;;5093643;28;19916;-67
2022/11/18 05:27:25;;;;;;;;;;;;;;;;;;5093867;28;19995;-67
2022/11/18 05:29:51;;;;;;;;;;;;;;;;;;5093453;28;19930;-68
2022/11/18 05:32:17;;;;;;;;;;;;;;;;;;5093835;28;19908;-68
2022/11/18 05:34:43;;;;;;;;;;;;;;;;;;5093744;28;19908;-67
2022/11/18 05:37:09;;;;;;;;;;;;;;;;;;5094265;28;19912;-67
2022/11/18 05:39:35;;;;;;;;;;;;;;;;;;5094444;28;19908;-67
2022/11/18 05:44:45;;;;;;;;;;;;;;;;;;5095128;28;19954;-67
2022/11/18 05:47:11;;;;;;;;;;;;;;;;;;5095539;28;19951;-67
2022/11/18 05:49:37;;;;;;;;;;;;;;;;;;5095502;28;19908;-67
2022/11/18 05:52:03;;;;;;;;;;;;;;;;;;5094996;28;19914;-67
2022/11/18 05:54:29;;;;;;;;;;;;;;;;;;5095331;28;19912;-67
2022/11/18 05:56:55;;;;;;;;;;;;;;;;;;5095274;28;20125;-67
2022/11/18 05:59:21;;;;;;;;;;;;;;;;;;5095264;28;19915;-67
2022/11/18 06:01:47;;;;;;;;;;;;;;;;;;5095199;28;19969;-67
2022/11/18 06:04:13;;;;;;;;;;;;;;;;;;5095098;28;19912;-67
2022/11/18 06:06:39;;;;;;;;;;;;;;;;;;5095146;28;20299;-67
2022/11/18 06:09:05;;;;;;;;;;;;;;;;;;5094636;28;19930;-67
2022/11/18 06:11:31;;;;;;;;;;;;;;;;;;5094486;28;19908;-67
2022/11/18 06:13:56;;;;;;;;;;;;;;;;;;5095137;28;19958;-67
2022/11/18 06:16:22;;;;;;;;;;;;;;;;;;5094839;28;19961;-67
2022/11/18 06:18:48;;;;;;;;;;;;;;;;;;5093114;28;20391;-67
2022/11/18 06:21:14;;;;;;;;;;;;;;;;;;5094674;28;20275;-66
2022/11/18 06:23:40;;;;;;;;;;;;;;;;;;5092270;28;20271;-67
2022/11/18 06:26:06;;;;;;;;;;;;;;;;;;5092422;28;19920;-67
2022/11/18 06:28:32;;;;;;;;;;;;;;;;;;5088835;28;19966;-68
2022/11/18 06:30:58;;;;;;;;;;;;;;;;;;5085700;28;19912;-67
2022/11/18 06:33:24;;;;;;;;;;;;;;;;;;5082292;28;19916;-67
2022/11/18 06:35:50;;;;;;;;;;;;;;;;;;5092940;28;19912;-67
2022/11/18 06:38:16;;;;;;;;;;;;;;;;;;5085398;28;19912;-67
2022/11/18 06:40:43;;;;;;;;;;;;;;;;;;5088040;28;19909;-67
2022/11/18 06:48:39;;;;;;;;;;;;;;;;;;5090918;28;19918;-66
2022/11/18 06:51:05;;;;;;;;;;;;;;;;;;5090637;28;19927;-67
2022/11/18 06:53:30;;;;;;;;;;;;;;;;;;5090540;28;19908;-67
2022/11/18 06:55:56;;;;;;;;;;;;;;;;;;5091471;28;19912;-67
2022/11/18 06:58:22;;;;;;;;;;;;;;;;;;5092095;28;19908;-67
2022/11/18 07:00:48;;;;;;;;;;;;;;;;;;5087691;28;20069;-67
2022/11/18 07:03:14;;;;;;;;;;;;;;;;;;5091174;28;19911;-67
2022/11/18 07:05:40;;;;;;;;;;;;;;;;;;5091255;28;19981;-67
2022/11/18 07:08:06;;;;;;;;;;;;;;;;;;5086607;28;20261;-67
2022/11/18 07:10:32;;;;;;;;;;;;;;;;;;5102905;28;20278;-67
2022/11/18 07:12:58;;;;;;;;;;;;;;;;;;5093491;28;19962;-67
2022/11/18 07:15:24;;;;;;;;;;;;;;;;;;5069467;28;19916;-67
2022/11/18 07:17:50;;;;;;;;;;;;;;;;;;5083263;28;20375;-68
2022/11/18 07:20:16;;;;;;;;;;;;;;;;;;5091547;28;19979;-68
2022/11/18 07:22:42;;;;;;;;;;;;;;;;;;5090361;28;19914;-68
2022/11/18 07:25:08;;;;;;;;;;;;;;;;;;5089330;28;19931;-68
2022/11/18 07:27:34;;;;;;;;;;;;;;;;;;5090062;28;19912;-68
2022/11/18 07:30:00;;;;;;;;;;;;;;;;;;5089691;28;19960;-68
2022/11/18 07:32:26;;;;;;;;;;;;;;;;;;5089785;28;19912;-68
2022/11/18 07:34:52;;;;;;;;;;;;;;;;;;5090206;28;20275;-68
2022/11/18 07:37:18;;;;;;;;;;;;;;;;;;5064969;28;19909;-67
2022/11/18 07:39:43;;;;;;;;;;;;;;;;;;5072437;28;19909;-67
2022/11/18 07:42:09;;;;;;;;;;;;;;;;;;5073189;28;19915;-68
2022/11/18 07:46:58;;;;;;;;;;;;;;;;;;5091058;27;19912;-66
2022/11/18 07:50:45;;;;;;;;;;;;;;;;;;5111098;27;19916;-65
2022/11/18 07:53:11;;;;;;;;;;;;;;;;;;5111228;28;20007;-66
2022/11/18 07:55:37;;;;;;;;;;;;;;;;;;5103133;28;20364;-66
2022/11/18 07:58:03;;;;;;;;;;;;;;;;;;5100376;28;19912;-66
2022/11/18 08:00:29;;;;;;;;;;;;;;;;;;5096379;28;19923;-67
2022/11/18 08:02:55;;;;;;;;;;;;;;;;;;5100780;28;19916;-67
2022/11/18 08:05:21;;;;;;;;;;;;;;;;;;5090400;28;19958;-67
2022/11/18 08:09:50;;;;;;;;;;;;;;;;;;5108896;27;19912;-67
2022/11/18 08:12:16;;;;;;;;;;;;;;;;;;5107228;28;20261;-67
2022/11/18 08:14:42;;;;;;;;;;;;;;;;;;5108829;28;19954;-67
2022/11/18 08:17:08;;;;;;;;;;;;;;;;;;5104741;28;19912;-67
2022/11/18 08:19:34;;;;;;;;;;;;;;;;;;5105622;28;19953;-67
2022/11/18 08:21:59;;;;;;;;;;;;;;;;;;5107403;28;20459;-68
2022/11/18 08:24:25;;;;;;;;;;;;;;;;;;5105718;28;20016;-67
2022/11/18 08:26:51;;;;;;;;;;;;;;;;;;5107098;28;19911;-67
2022/11/18 08:29:17;;;;;;;;;;;;;;;;;;5106825;28;19927;-67
2022/11/18 08:31:43;;;;;;;;;;;;;;;;;;5107139;28;19911;-67
2022/11/18 08:34:09;;;;;;;;;;;;;;;;;;5109477;28;19915;-67
2022/11/18 08:36:35;;;;;;;;;;;;;;;;;;5109403;28;19912;-67
2022/11/18 08:39:01;;;;;;;;;;;;;;;;;;5110285;28;20007;-67
2022/11/18 08:41:28;;;;;;;;;;;;;;;;;;5110565;28;19912;-67
2022/11/18 08:43:54;;;;;;;;;;;;;;;;;;5110031;28;20002;-67
2022/11/18 08:48:34;;;;;;;;;;;;;;;;;;5110913;27;19918;-66
2022/11/18 08:51:00;;;;;;;;;;;;;;;;;;5111206;28;20015;-66
2022/11/18 08:53:26;;;;;;;;;;;;;;;;;;5110766;28;19934;-66
2022/11/18 08:55:52;;;;;;;;;;;;;;;;;;5109193;28;20005;-65
2022/11/18 08:58:18;;;;;;;;;;;;;;;;;;5109824;28;19908;-66
2022/11/18 09:00:44;;;;;;;;;;;;;;;;;;5104339;28;19986;-66
2022/11/18 09:03:10;;;;;;;;;;;;;;;;;;5107974;28;20462;-67
2022/11/18 09:05:36;;;;;;;;;;;;;;;;;;5111020;27;19973;-67
2022/11/18 09:08:02;;;;;;;;;;;;;;;;;;5109900;28;19923;-68
2022/11/18 09:10:28;;;;;;;;;;;;;;;;;;5109962;28;20631;-67
2022/11/18 09:12:54;;;;;;;;;;;;;;;;;;5109881;28;19916;-67
2022/11/18 09:15:22;;;;;;;;;;;;;;;;;;5109923;28;19913;-67
2022/11/18 09:17:48;;;;;;;;;;;;;;;;;;5110507;28;19950;-67
2022/11/18 09:20:14;;;;;;;;;;;;;;;;;;5110192;28;19955;-67
2022/11/18 09:24:52;;;;;;;;;;;;;;;;;;5117713;27;19912;-66
2022/11/18 09:27:18;;;;;;;;;;;;;;;;;;5131473;27;20015;-68
2022/11/18 09:29:44;;;;;;;;;;;;;;;;;;5130814;27;20342;-68
2022/11/18 09:32:09;;;;;;;;;;;;;;;;;;5131265;27;19994;-66
2022/11/18 09:34:35;;;;;;;;;;;;;;;;;;5110412;27;19908;-66
2022/11/18 09:37:59;;;;;;;;;;;;;;;;;;5110880;27;20380;-67
2022/11/18 09:40:25;;;;;;;;;;;;;;;;;;5108611;28;19918;-66
2022/11/18 09:42:51;;;;;;;;;;;;;;;;;;5095683;28;20415;-67
2022/11/18 09:45:17;;;;;;;;;;;;;;;;;;5097721;28;19943;-68
2022/11/18 09:47:43;;;;;;;;;;;;;;;;;;5096421;28;19912;-67
2022/11/18 09:50:09;;;;;;;;;;;;;;;;;;5088479;28;19912;-68
2022/11/18 09:52:35;;;;;;;;;;;;;;;;;;5120694;28;19915;-68
2022/11/18 09:55:01;;;;;;;;;;;;;;;;;;5098684;28;19908;-67
2022/11/18 09:59:05;;;;;;;;;;;;;;;;;;5088267;27;19917;-68
2022/11/18 10:01:31;;;;;;;;;;;;;;;;;;5070457;28;20047;-67
2022/11/18 10:05:43;;;;;;;;;;;;;;;;;;5108031;27;19912;-68
2022/11/18 10:08:09;;;;;;;;;;;;;;;;;;5108242;28;19948;-66
2022/11/18 10:10:59;;;;;;;;;;;;;;;;;;5156561;27;20409;-67
2022/11/18 10:13:25;;;;;;;;;;;;;;;;;;5133880;27;19911;-66
2022/11/18 10:15:51;;;;;;;;;;;;;;;;;;5152509;27;20405;-67
2022/11/18 10:19:36;;;;;;;;;;;;;;;;;;5084054;27;20394;-67
2022/11/18 10:22:02;;;;;;;;;;;;;;;;;;5069495;28;19947;-66
2022/11/18 10:24:28;;;;;;;;;;;;;;;;;;5068763;28;19908;-66
2022/11/18 10:26:54;;;;;;;;;;;;;;;;;;5070006;28;20380;-68
2022/11/18 10:29:22;;;;;;;;;;;;;;;;;;5064800;28;20011;-66
2022/11/18 10:31:48;;;;;;;;;;;;;;;;;;5066952;28;19916;-67
2022/11/18 10:34:14;;;;;;;;;;;;;;;;;;5068651;28;19936;-67
2022/11/18 10:36:40;;;;;;;;;;;;;;;;;;5066220;28;19909;-66
2022/11/18 10:39:06;;;;;;;;;;;;;;;;;;5066543;28;19916;-66
2022/11/18 10:41:32;;;;;;;;;;;;;;;;;;5067130;28;19925;-66
2022/11/18 10:43:58;;;;;;;;;;;;;;;;;;5064033;28;19913;-66
2022/11/18 10:46:24;;;;;;;;;;;;;;;;;;5067164;28;19921;-66
2022/11/18 10:48:50;;;;;;;;;;;;;;;;;;5066337;28;19916;-65
2022/11/18 10:53:24;;;;;;;;;;;;;;;;;;5088071;27;19922;-67
2022/11/18 10:55:50;;;;;;;;;;;;;;;;;;5088639;28;20283;-66
2022/11/18 10:58:16;;;;;;;;;;;;;;;;;;5088458;28;19916;-65
2022/11/18 11:00:42;;;;;;;;;;;;;;;;;;5090023;28;19909;-66
2022/11/18 11:03:08;;;;;;;;;;;;;;;;;;5090195;28;20007;-66
2022/11/18 11:06:45;;;;;;;;;;;;;;;;;;5110067;27;19916;-65
2022/11/18 11:09:11;;;;;;;;;;;;;;;;;;5109744;28;19991;-65
2022/11/18 11:11:38;;;;;;;;;;;;;;;;;;5108324;28;19915;-66
2022/11/18 11:14:04;;;;;;;;;;;;;;;;;;5113415;28;19912;-66
2022/11/18 11:16:30;;;;;;;;;;;;;;;;;;5108774;27;19912;-65
2022/11/18 11:18:56;;;;;;;;;;;;;;;;;;5110530;28;19951;-65
2022/11/18 11:21:23;;;;;;;;;;;;;;;;;;5109090;28;19998;-66
2022/11/18 11:23:49;;;;;;;;;;;;;;;;;;5110153;28;19914;-66
2022/11/18 11:26:15;;;;;;;;;;;;;;;;;;5109195;28;20003;-67
2022/11/18 11:28:41;;;;;;;;;;;;;;;;;;5110651;28;19915;-67
2022/11/18 11:31:07;;;;;;;;;;;;;;;;;;5110713;28;19955;-66
2022/11/18 11:33:33;;;;;;;;;;;;;;;;;;5110948;28;19915;-66
2022/11/18 11:35:59;;;;;;;;;;;;;;;;;;5108980;28;19916;-68
2022/11/18 11:38:25;;;;;;;;;;;;;;;;;;5109826;28;19934;-66
2022/11/18 11:40:51;;;;;;;;;;;;;;;;;;5110013;28;19908;-66
2022/11/18 11:43:17;;;;;;;;;;;;;;;;;;5109997;28;19908;-66
2022/11/18 11:45:43;;;;;;;;;;;;;;;;;;5105937;28;19916;-66
2022/11/18 11:48:09;;;;;;;;;;;;;;;;;;5102345;28;19913;-66
2022/11/18 11:50:52;;;;;;;;;;;;;;;;;;5087051;28;19917;-66
2022/11/18 11:53:18;;;;;;;;;;;;;;;;;;5085076;28;20397;-66
2022/11/18 11:57:18;;;;;;;;;;;;;;;;;;5109337;27;19916;-66
2022/11/18 12:02:06;;;;;;;;;;;;;;;;;;5089317;27;20380;-66
2022/11/18 12:04:32;;;;;;;;;;;;;;;;;;5090109;28;19912;-66
2022/11/18 12:06:59;;;;;;;;;;;;;;;;;;5089973;28;20292;-66
2022/11/18 12:09:25;;;;;;;;;;;;;;;;;;5085932;28;19912;-66
2022/11/18 12:13:42;;;;;;;;;;;;;;;;;;5079776;27;19921;-66
2022/11/18 12:16:08;;;;;;;;;;;;;;;;;;5083895;28;20007;-66
2022/11/18 12:18:34;;;;;;;;;;;;;;;;;;5069154;28;20012;-66
2022/11/18 12:21:00;;;;;;;;;;;;;;;;;;5064920;28;19962;-66
2022/11/18 12:23:26;;;;;;;;;;;;;;;;;;5066623;28;19908;-66
2022/11/18 12:25:52;;;;;;;;;;;;;;;;;;5065619;28;19928;-66
2022/11/18 12:28:18;;;;;;;;;;;;;;;;;;5068178;28;20443;-66
2022/11/18 12:30:44;;;;;;;;;;;;;;;;;;5065583;28;19912;-67
2022/11/18 12:33:10;;;;;;;;;;;;;;;;;;5052054;28;19921;-67
2022/11/18 12:35:36;;;;;;;;;;;;;;;;;;5065939;28;19913;-67
2022/11/18 12:38:02;;;;;;;;;;;;;;;;;;5067661;28;20415;-67
2022/11/18 12:47:03;;;;;;;;;;;;;;;;;;5107966;27;19912;-66
2022/11/18 12:49:29;;;;;;;;;;;;;;;;;;5109266;28;19938;-66
2022/11/18 12:53:42;;;;;;;;;;;;;;;;;;5088464;27;19923;-65
2022/11/18 12:56:08;;;;;;;;;;;;;;;;;;5088746;28;19913;-66
2022/11/18 13:01:07;;;;;;;;;;;;;;;;;;5079972;27;19920;-66
2022/11/18 13:03:33;;;;;;;;;;;;;;;;;;5070642;28;20003;-66
2022/11/18 13:08:32;;;;;;;;;;;;;;;;;;5087380;27;19920;-65
2022/11/18 13:18:33;;;;;;;;;;;;;;;;;;5091027;27;19922;-65
2022/11/18 13:27:40;;;;;;;;;;;;;;;;;;5090492;27;19923;-66
2022/11/18 13:30:07;;;;;;;;;;;;;;;;;;5079576;28;20003;-66
2022/11/18 13:32:33;;;;;;;;;;;;;;;;;;5068332;28;19913;-66
2022/11/18 13:34:59;;;;;;;;;;;;;;;;;;5066090;28;19967;-65
2022/11/18 13:37:25;;;;;;;;;;;;;;;;;;5068795;28;19915;-66
2022/11/18 13:41:32;;;;;;;;;;;;;;;;;;5157062;27;19930;-66
2022/11/18 13:43:58;;;;;;;;;;;;;;;;;;5132661;27;20398;-67
2022/11/18 13:46:24;;;;;;;;;;;;;;;;;;5130789;27;19958;-67
2022/11/18 13:48:50;;;;;;;;;;;;;;;;;;5149625;27;19908;-67
2022/11/18 13:51:16;;;;;;;;;;;;;;;;;;5149337;27;19907;-67
2022/11/18 13:53:43;;;;;;;;;;;;;;;;;;5150019;27;20370;-67
2022/11/18 13:56:09;;;;;;;;;;;;;;;;;;5149793;27;20017;-66
2022/11/18 13:58:35;;;;;;;;;;;;;;;;;;5131209;27;19907;-67
2022/11/18 14:01:44;;;;;;;;;;;;;;;;;;5087955;28;19919;-66
2022/11/18 14:04:10;;;;;;;;;;;;;;;;;;5087942;28;20003;-66
2022/11/18 14:06:36;;;;;;;;;;;;;;;;;;5089013;28;19948;-68
2022/11/18 14:09:02;;;;;;;;;;;;;;;;;;5088891;28;19965;-67
2022/11/18 14:12:13;;;;;;;;;;;;;;;;;;5088557;27;19916;-66
2022/11/18 14:16:27;;;;;;;;;;;;;;;;;;5090247;27;20286;-68
2022/11/18 14:20:38;;;;;;;;;;;;;;;;;;5111544;27;19922;-66
2022/11/18 14:25:34;;;;;;;;;;;;;;;;;;5111382;27;19922;-67
2022/11/18 14:28:00;;;;;;;;;;;;;;;;;;5110017;28;19995;-67
2022/11/18 14:30:26;;;;;;;;;;;;;;;;;;5111122;28;19961;-66
2022/11/18 14:32:52;;;;;;;;;;;;;;;;;;5111575;28;19908;-66
2022/11/18 14:35:18;;;;;;;;;;;;;;;;;;5111398;28;20015;-66
2022/11/18 14:37:44;;;;;;;;;;;;;;;;;;5111082;28;19916;-67
2022/11/18 14:40:10;;;;;;;;;;;;;;;;;;5111584;28;19911;-66
2022/11/18 14:43:35;;;;;;;;;;;;;;;;;;5091420;28;19917;-66
2022/11/18 14:46:01;;;;;;;;;;;;;;;;;;5089512;28;20023;-66
2022/11/18 14:50:37;;;;;;;;;;;;;;;;;;5111663;27;19916;-67
2022/11/18 14:53:03;;;;;;;;;;;;;;;;;;5111102;28;20010;-67
2022/11/18 14:55:29;;;;;;;;;;;;;;;;;;5111359;28;19998;-67
2022/11/18 14:57:55;;;;;;;;;;;;;;;;;;5111475;28;19944;-67
2022/11/18 15:00:21;;;;;;;;;;;;;;;;;;5111275;28;19961;-67
2022/11/18 15:04:29;;;;;;;;;;;;;;;;;;5111908;27;20291;-67
2022/11/18 15:06:55;;;;;;;;;;;;;;;;;;5111117;28;20014;-67
2022/11/18 15:09:21;;;;;;;;;;;;;;;;;;5111681;28;19908;-69
2022/11/18 15:14:17;;;;;;;;;;;;;;;;;;5111163;27;19916;-67
2022/11/18 15:17:11;;;;;;;;;;;;;;;;;;5111798;27;19930;-68
2022/11/18 15:19:37;;;;;;;;;;;;;;;;;;5111245;28;20002;-68
2022/11/18 15:22:03;;;;;;;;;;;;;;;;;;5111483;28;20336;-67
2022/11/18 15:26:19;;;;;;;;;;;;;;;;;;5091431;27;19923;-66
2022/11/18 15:31:04;;;;;;;;;;;;;;;;;;5111879;27;19916;-66
2022/11/18 15:33:30;;;;;;;;;;;;;;;;;;5110107;28;19994;-67
2022/11/18 15:35:56;;;;;;;;;;;;;;;;;;5109787;28;19912;-67
2022/11/18 15:38:22;;;;;;;;;;;;;;;;;;5111479;28;20003;-66
2022/11/18 15:40:48;;;;;;;;;;;;;;;;;;5110395;28;19908;-66
2022/11/18 15:43:16;;;;;;;;;;;;;;;;;;5109980;28;19973;-67
2022/11/18 15:45:42;;;;;;;;;;;;;;;;;;5111527;28;19908;-68
2022/11/18 15:48:08;;;;;;;;;;;;;;;;;;5110942;28;20481;-67
2022/11/18 15:50:34;;;;;;;;;;;;;;;;;;5111172;28;19920;-67
2022/11/18 15:53:00;;;;;;;;;;;;;;;;;;5111166;28;19912;-67
2022/11/18 15:55:26;;;;;;;;;;;;;;;;;;5110835;28;19915;-67
2022/11/18 15:57:52;;;;;;;;;;;;;;;;;;5111128;28;20006;-67
2022/11/18 16:00:18;;;;;;;;;;;;;;;;;;5111033;28;19908;-67
2022/11/18 16:02:44;;;;;;;;;;;;;;;;;;5110663;28;19955;-68
2022/11/18 16:05:10;;;;;;;;;;;;;;;;;;5111005;28;19908;-67
2022/11/18 16:07:36;;;;;;;;;;;;;;;;;;5110804;28;19908;-68
2022/11/18 16:12:46;;;;;;;;;;;;;;;;;;5110712;28;20263;-66
2022/11/18 16:17:57;;;;;;;;;;;;;;;;;;5110381;28;19954;-67
2022/11/18 16:20:23;;;;;;;;;;;;;;;;;;5110629;28;19908;-67
2022/11/18 16:24:30;;;;;;;;;;;;;;;;;;5091024;27;19916;-68
2022/11/18 16:26:56;;;;;;;;;;;;;;;;;;5091096;28;19950;-68
2022/11/18 16:33:12;;;;;;;;;;;;;;;;;;5111718;27;19918;-68
2022/11/18 16:35:38;;;;;;;;;;;;;;;;;;5111420;28;19999;-67
2022/11/18 16:39:28;;;;;;;;;;;;;;;;;;5132301;27;19922;-68
2022/11/18 16:41:54;;;;;;;;;;;;;;;;;;5130675;28;20346;-66
2022/11/18 16:44:20;;;;;;;;;;;;;;;;;;5131608;28;19953;-68
2022/11/18 16:46:45;;;;;;;;;;;;;;;;;;5131982;28;19914;-68
2022/11/18 16:49:11;;;;;;;;;;;;;;;;;;5132536;28;19908;-66
2022/11/18 16:51:37;;;;;;;;;;;;;;;;;;5129472;28;19918;-67
2022/11/18 16:54:03;;;;;;;;;;;;;;;;;;5131866;28;19912;-67
2022/11/18 16:56:29;;;;;;;;;;;;;;;;;;5131902;28;19912;-67
2022/11/18 16:58:56;;;;;;;;;;;;;;;;;;5131423;28;19916;-67
2022/11/18 17:02:26;;;;;;;;;;;;;;;;;;5091994;28;19917;-66
2022/11/18 17:04:52;;;;;;;;;;;;;;;;;;5091318;28;20348;-68
2022/11/18 17:10:24;;;;;;;;;;;;;;;;;;5092277;27;19916;-66
2022/11/18 17:12:50;;;;;;;;;;;;;;;;;;5090960;28;20435;-66
2022/11/18 17:15:16;;;;;;;;;;;;;;;;;;5090050;28;19908;-68
2022/11/18 17:17:42;;;;;;;;;;;;;;;;;;5091282;28;19958;-66
2022/11/18 17:20:08;;;;;;;;;;;;;;;;;;5090878;28;19909;-66
2022/11/18 17:22:34;;;;;;;;;;;;;;;;;;5090937;28;20264;-66
2022/11/18 17:25:00;;;;;;;;;;;;;;;;;;5089806;28;19934;-67
2022/11/18 17:28:51;;;;;;;;;;;;;;;;;;5092071;27;20284;-66
2022/11/18 17:31:17;;;;;;;;;;;;;;;;;;5091303;28;19918;-66
2022/11/18 17:33:43;;;;;;;;;;;;;;;;;;5090969;28;19912;-68
2022/11/18 17:36:09;;;;;;;;;;;;;;;;;;5091289;28;19915;-68
2022/11/18 17:38:35;;;;;;;;;;;;;;;;;;5091349;28;19909;-68
2022/11/18 17:41:01;;;;;;;;;;;;;;;;;;5089533;28;20388;-68
2022/11/18 17:43:27;;;;;;;;;;;;;;;;;;5089916;28;20261;-68
2022/11/18 17:45:53;;;;;;;;;;;;;;;;;;5091194;28;19913;-68
2022/11/18 17:48:19;;;;;;;;;;;;;;;;;;5090583;28;19916;-68
2022/11/18 17:50:45;;;;;;;;;;;;;;;;;;5091269;28;19916;-66
2022/11/18 17:53:11;;;;;;;;;;;;;;;;;;5090972;28;19909;-66
2022/11/18 17:55:37;;;;;;;;;;;;;;;;;;5089273;28;19908;-68
2022/11/18 17:58:03;;;;;;;;;;;;;;;;;;5090819;28;19912;-67
2022/11/18 18:00:30;;;;;;;;;;;;;;;;;;5091042;28;19908;-67
2022/11/18 18:02:56;;;;;;;;;;;;;;;;;;5090374;28;19908;-67
2022/11/18 18:05:22;;;;;;;;;;;;;;;;;;5090660;28;19954;-67
2022/11/18 18:07:49;;;;;;;;;;;;;;;;;;5090626;28;19916;-67
2022/11/18 18:10:15;;;;;;;;;;;;;;;;;;5090114;28;19909;-67
2022/11/18 18:15:26;;;;;;;;;;;;;;;;;;5090259;28;19962;-67
2022/11/18 18:17:52;;;;;;;;;;;;;;;;;;5090452;28;19908;-67
2022/11/18 18:20:18;;;;;;;;;;;;;;;;;;5090556;28;19908;-67
2022/11/18 18:22:44;;;;;;;;;;;;;;;;;;5089497;28;19915;-66
2022/11/18 18:25:13;;;;;;;;;;;;;;;;;;5090297;28;20318;-66
2022/11/18 18:27:39;;;;;;;;;;;;;;;;;;5088680;28;19920;-67
2022/11/18 18:30:49;;;;;;;;;;;;;;;;;;5111437;27;19916;-66